sensor_id;sensor_type;location;lat;lon;timestamp;P1;durP1;ratioP1;P2;durP2;ratioP2
38621;SDS011;24380;51.132;5.360;2023-03-21T00:00:57;10.00;;;5.95;;
38621;SDS011;24380;51.132;5.360;2023-03-21T00:03:28;13.03;;;6.45;;
38621;SDS011;24380;51.132;5.360;2023-03-21T00:05:56;11.88;;;6.47;;
38621;SDS011;24380;51.132;5.360;2023-03-21T00:08:24;12.13;;;6.25;;
38621;SDS011;24380;51.132;5.360;2023-03-21T00:10:56;11.30;;;6.15;;
38621;SDS011;24380;51.132;5.360;2023-03-21T00:13:25;16.17;;;6.33;;
38621;SDS011;24380;51.132;5.360;2023-03-21T00:18:22;13.50;;;6.30;;
38621;SDS011;24380;51.132;5.360;2023-03-21T00:20:56;14.05;;;5.97;;
38621;SDS011;24380;51.132;5.360;2023-03-21T00:23:26;14.00;;;5.78;;
38621;SDS011;24380;51.132;5.360;2023-03-21T00:25:54;12.95;;;6.50;;
38621;SDS011;24380;51.132;5.360;2023-03-21T00:28:23;10.70;;;5.87;;
38621;SDS011;24380;51.132;5.360;2023-03-21T00:30:55;9.30;;;5.65;;
38621;SDS011;24380;51.132;5.360;2023-03-21T00:33:26;11.33;;;5.62;;
38621;SDS011;24380;51.132;5.360;2023-03-21T00:35:54;14.25;;;6.50;;
38621;SDS011;24380;51.132;5.360;2023-03-21T00:38:22;11.18;;;5.97;;
38621;SDS011;24380;51.132;5.360;2023-03-21T00:40:50;14.65;;;6.78;;
38621;SDS011;24380;51.132;5.360;2023-03-21T00:43:17;10.80;;;5.83;;
38621;SDS011;24380;51.132;5.360;2023-03-21T00:45:48;11.27;;;6.70;;
38621;SDS011;24380;51.132;5.360;2023-03-21T00:48:17;12.00;;;6.58;;
38621;SDS011;24380;51.132;5.360;2023-03-21T00:50:45;17.67;;;6.70;;
38621;SDS011;24380;51.132;5.360;2023-03-21T00:53:14;15.08;;;7.30;;
38621;SDS011;24380;51.132;5.360;2023-03-21T00:55:41;16.75;;;6.87;;
38621;SDS011;24380;51.132;5.360;2023-03-21T00:58:09;13.45;;;7.05;;
38621;SDS011;24380;51.132;5.360;2023-03-21T01:00:37;13.08;;;6.95;;
38621;SDS011;24380;51.132;5.360;2023-03-21T01:03:05;14.18;;;7.12;;
38621;SDS011;24380;51.132;5.360;2023-03-21T01:05:36;13.40;;;7.00;;
38621;SDS011;24380;51.132;5.360;2023-03-21T01:08:22;14.50;;;7.70;;
38621;SDS011;24380;51.132;5.360;2023-03-21T01:10:51;16.60;;;7.53;;
38621;SDS011;24380;51.132;5.360;2023-03-21T01:13:19;14.68;;;7.67;;
38621;SDS011;24380;51.132;5.360;2023-03-21T01:15:49;17.57;;;8.05;;
38621;SDS011;24380;51.132;5.360;2023-03-21T01:20:47;21.07;;;8.03;;
38621;SDS011;24380;51.132;5.360;2023-03-21T01:23:15;16.07;;;7.58;;
38621;SDS011;24380;51.132;5.360;2023-03-21T01:25:43;20.02;;;8.10;;
38621;SDS011;24380;51.132;5.360;2023-03-21T01:28:13;19.23;;;8.50;;
38621;SDS011;24380;51.132;5.360;2023-03-21T01:30:45;19.35;;;8.10;;
38621;SDS011;24380;51.132;5.360;2023-03-21T01:33:16;18.07;;;8.80;;
38621;SDS011;24380;51.132;5.360;2023-03-21T01:35:45;18.67;;;8.35;;
38621;SDS011;24380;51.132;5.360;2023-03-21T01:38:13;17.10;;;8.30;;
38621;SDS011;24380;51.132;5.360;2023-03-21T01:40:42;15.25;;;8.00;;
38621;SDS011;24380;51.132;5.360;2023-03-21T01:49:03;14.07;;;7.85;;
38621;SDS011;24380;51.132;5.360;2023-03-21T01:51:37;16.20;;;8.50;;
38621;SDS011;24380;51.132;5.360;2023-03-21T01:54:10;19.62;;;8.08;;
38621;SDS011;24380;51.132;5.360;2023-03-21T01:56:39;16.65;;;8.45;;
38621;SDS011;24380;51.132;5.360;2023-03-21T01:59:11;18.65;;;8.13;;
38621;SDS011;24380;51.132;5.360;2023-03-21T02:01:42;16.85;;;8.20;;
38621;SDS011;24380;51.132;5.360;2023-03-21T02:04:11;16.60;;;8.03;;
38621;SDS011;24380;51.132;5.360;2023-03-21T02:06:48;18.23;;;7.92;;
38621;SDS011;24380;51.132;5.360;2023-03-21T02:09:20;17.75;;;7.97;;
38621;SDS011;24380;51.132;5.360;2023-03-21T02:11:49;15.88;;;8.15;;
38621;SDS011;24380;51.132;5.360;2023-03-21T02:14:17;15.88;;;7.60;;
38621;SDS011;24380;51.132;5.360;2023-03-21T02:24:47;15.15;;;7.60;;
38621;SDS011;24380;51.132;5.360;2023-03-21T02:35:19;13.65;;;7.40;;
38621;SDS011;24380;51.132;5.360;2023-03-21T02:38:07;19.12;;;7.87;;
38621;SDS011;24380;51.132;5.360;2023-03-21T02:40:42;13.25;;;7.35;;
38621;SDS011;24380;51.132;5.360;2023-03-21T02:43:14;16.50;;;7.12;;
38621;SDS011;24380;51.132;5.360;2023-03-21T02:46:07;12.63;;;6.78;;
38621;SDS011;24380;51.132;5.360;2023-03-21T02:48:33;16.00;;;7.47;;
38621;SDS011;24380;51.132;5.360;2023-03-21T02:51:02;14.73;;;7.33;;
38621;SDS011;24380;51.132;5.360;2023-03-21T02:53:33;15.88;;;6.92;;
38621;SDS011;24380;51.132;5.360;2023-03-21T02:56:02;12.65;;;6.50;;
38621;SDS011;24380;51.132;5.360;2023-03-21T02:58:34;16.55;;;7.15;;
38621;SDS011;24380;51.132;5.360;2023-03-21T03:01:03;13.72;;;7.33;;
38621;SDS011;24380;51.132;5.360;2023-03-21T03:03:32;16.62;;;6.87;;
38621;SDS011;24380;51.132;5.360;2023-03-21T03:06:03;19.50;;;6.90;;
38621;SDS011;24380;51.132;5.360;2023-03-21T03:11:29;15.78;;;7.10;;
38621;SDS011;24380;51.132;5.360;2023-03-21T03:19:27;13.08;;;6.87;;
38621;SDS011;24380;51.132;5.360;2023-03-21T03:21:58;16.42;;;6.85;;
38621;SDS011;24380;51.132;5.360;2023-03-21T03:24:37;14.05;;;6.87;;
38621;SDS011;24380;51.132;5.360;2023-03-21T03:29:38;13.55;;;7.05;;
38621;SDS011;24380;51.132;5.360;2023-03-21T03:32:14;15.13;;;7.45;;
38621;SDS011;24380;51.132;5.360;2023-03-21T03:34:50;12.05;;;6.83;;
38621;SDS011;24380;51.132;5.360;2023-03-21T03:37:29;15.43;;;6.78;;
38621;SDS011;24380;51.132;5.360;2023-03-21T03:40:00;14.28;;;6.92;;
38621;SDS011;24380;51.132;5.360;2023-03-21T03:42:33;16.73;;;6.67;;
38621;SDS011;24380;51.132;5.360;2023-03-21T03:45:02;13.25;;;6.03;;
38621;SDS011;24380;51.132;5.360;2023-03-21T03:52:36;16.30;;;6.85;;
38621;SDS011;24380;51.132;5.360;2023-03-21T03:55:08;17.98;;;7.22;;
38621;SDS011;24380;51.132;5.360;2023-03-21T03:57:37;15.38;;;6.70;;
38621;SDS011;24380;51.132;5.360;2023-03-21T04:00:06;14.73;;;6.60;;
38621;SDS011;24380;51.132;5.360;2023-03-21T04:02:38;16.80;;;6.60;;
38621;SDS011;24380;51.132;5.360;2023-03-21T04:05:05;15.10;;;6.72;;
38621;SDS011;24380;51.132;5.360;2023-03-21T04:07:33;15.10;;;6.17;;
38621;SDS011;24380;51.132;5.360;2023-03-21T04:10:01;12.90;;;5.90;;
38621;SDS011;24380;51.132;5.360;2023-03-21T04:12:29;14.18;;;6.22;;
38621;SDS011;24380;51.132;5.360;2023-03-21T04:14:57;15.35;;;6.72;;
38621;SDS011;24380;51.132;5.360;2023-03-21T04:17:24;15.60;;;6.62;;
38621;SDS011;24380;51.132;5.360;2023-03-21T04:19:52;14.80;;;5.95;;
38621;SDS011;24380;51.132;5.360;2023-03-21T04:22:20;16.12;;;6.60;;
38621;SDS011;24380;51.132;5.360;2023-03-21T04:24:47;15.88;;;6.33;;
38621;SDS011;24380;51.132;5.360;2023-03-21T04:27:15;11.57;;;5.85;;
38621;SDS011;24380;51.132;5.360;2023-03-21T04:29:42;13.08;;;6.08;;
38621;SDS011;24380;51.132;5.360;2023-03-21T04:32:10;10.58;;;5.47;;
38621;SDS011;24380;51.132;5.360;2023-03-21T04:34:39;10.35;;;5.47;;
38621;SDS011;24380;51.132;5.360;2023-03-21T04:39:38;12.70;;;5.42;;
38621;SDS011;24380;51.132;5.360;2023-03-21T04:42:06;9.88;;;4.58;;
38621;SDS011;24380;51.132;5.360;2023-03-21T04:44:33;11.18;;;4.17;;
38621;SDS011;24380;51.132;5.360;2023-03-21T04:47:01;10.80;;;4.00;;
38621;SDS011;24380;51.132;5.360;2023-03-21T04:49:29;8.18;;;3.67;;
38621;SDS011;24380;51.132;5.360;2023-03-21T04:51:56;13.98;;;3.95;;
38621;SDS011;24380;51.132;5.360;2023-03-21T04:54:24;10.43;;;4.03;;
38621;SDS011;24380;51.132;5.360;2023-03-21T04:56:51;9.53;;;4.42;;
38621;SDS011;24380;51.132;5.360;2023-03-21T04:59:20;10.10;;;4.45;;
38621;SDS011;24380;51.132;5.360;2023-03-21T05:01:47;9.75;;;4.10;;
38621;SDS011;24380;51.132;5.360;2023-03-21T05:04:15;12.73;;;4.35;;
38621;SDS011;24380;51.132;5.360;2023-03-21T05:06:43;11.70;;;4.53;;
38621;SDS011;24380;51.132;5.360;2023-03-21T05:09:11;11.65;;;3.98;;
38621;SDS011;24380;51.132;5.360;2023-03-21T05:11:40;10.20;;;3.98;;
38621;SDS011;24380;51.132;5.360;2023-03-21T05:14:09;13.50;;;4.20;;
38621;SDS011;24380;51.132;5.360;2023-03-21T05:16:39;13.00;;;4.30;;
38621;SDS011;24380;51.132;5.360;2023-03-21T05:19:10;10.58;;;4.33;;
38621;SDS011;24380;51.132;5.360;2023-03-21T05:21:38;12.10;;;4.58;;
38621;SDS011;24380;51.132;5.360;2023-03-21T05:24:07;13.70;;;4.87;;
38621;SDS011;24380;51.132;5.360;2023-03-21T05:26:37;11.35;;;4.92;;
38621;SDS011;24380;51.132;5.360;2023-03-21T05:29:05;13.00;;;5.15;;
38621;SDS011;24380;51.132;5.360;2023-03-21T05:31:34;12.93;;;5.17;;
38621;SDS011;24380;51.132;5.360;2023-03-21T05:34:02;9.23;;;4.95;;
38621;SDS011;24380;51.132;5.360;2023-03-21T05:36:29;12.50;;;5.40;;
38621;SDS011;24380;51.132;5.360;2023-03-21T05:38:58;15.08;;;4.87;;
38621;SDS011;24380;51.132;5.360;2023-03-21T05:41:26;14.53;;;5.70;;
38621;SDS011;24380;51.132;5.360;2023-03-21T05:43:54;12.70;;;5.45;;
38621;SDS011;24380;51.132;5.360;2023-03-21T05:46:21;18.45;;;6.08;;
38621;SDS011;24380;51.132;5.360;2023-03-21T05:48:49;12.53;;;6.47;;
38621;SDS011;24380;51.132;5.360;2023-03-21T05:51:17;15.78;;;6.58;;
38621;SDS011;24380;51.132;5.360;2023-03-21T05:53:45;14.58;;;5.75;;
38621;SDS011;24380;51.132;5.360;2023-03-21T05:56:13;11.33;;;5.20;;
38621;SDS011;24380;51.132;5.360;2023-03-21T05:58:41;10.08;;;5.00;;
38621;SDS011;24380;51.132;5.360;2023-03-21T06:01:08;13.62;;;5.30;;
38621;SDS011;24380;51.132;5.360;2023-03-21T06:03:36;10.50;;;5.40;;
38621;SDS011;24380;51.132;5.360;2023-03-21T06:06:04;12.70;;;5.47;;
38621;SDS011;24380;51.132;5.360;2023-03-21T06:08:32;13.03;;;5.58;;
38621;SDS011;24380;51.132;5.360;2023-03-21T06:11:00;13.00;;;5.47;;
38621;SDS011;24380;51.132;5.360;2023-03-21T06:13:28;13.88;;;5.97;;
38621;SDS011;24380;51.132;5.360;2023-03-21T06:15:57;13.55;;;5.25;;
38621;SDS011;24380;51.132;5.360;2023-03-21T06:18:24;17.10;;;6.00;;
38621;SDS011;24380;51.132;5.360;2023-03-21T06:20:52;12.30;;;5.67;;
38621;SDS011;24380;51.132;5.360;2023-03-21T06:23:22;15.55;;;5.95;;
38621;SDS011;24380;51.132;5.360;2023-03-21T06:25:49;15.50;;;5.90;;
38621;SDS011;24380;51.132;5.360;2023-03-21T06:28:17;10.23;;;5.85;;
38621;SDS011;24380;51.132;5.360;2023-03-21T06:30:45;12.40;;;5.17;;
38621;SDS011;24380;51.132;5.360;2023-03-21T06:33:12;11.95;;;5.60;;
38621;SDS011;24380;51.132;5.360;2023-03-21T06:35:40;12.55;;;5.83;;
38621;SDS011;24380;51.132;5.360;2023-03-21T06:38:08;15.50;;;5.47;;
38621;SDS011;24380;51.132;5.360;2023-03-21T06:40:37;12.80;;;5.37;;
38621;SDS011;24380;51.132;5.360;2023-03-21T06:43:05;11.12;;;5.50;;
38621;SDS011;24380;51.132;5.360;2023-03-21T06:45:32;12.98;;;5.60;;
38621;SDS011;24380;51.132;5.360;2023-03-21T06:48:00;14.68;;;5.55;;
38621;SDS011;24380;51.132;5.360;2023-03-21T06:50:28;14.05;;;5.70;;
38621;SDS011;24380;51.132;5.360;2023-03-21T06:52:55;12.65;;;5.50;;
38621;SDS011;24380;51.132;5.360;2023-03-21T06:55:24;15.30;;;5.87;;
38621;SDS011;24380;51.132;5.360;2023-03-21T06:57:54;12.68;;;5.70;;
38621;SDS011;24380;51.132;5.360;2023-03-21T07:00:22;11.90;;;5.20;;
38621;SDS011;24380;51.132;5.360;2023-03-21T07:02:50;17.48;;;5.70;;
38621;SDS011;24380;51.132;5.360;2023-03-21T07:05:18;10.48;;;5.45;;
38621;SDS011;24380;51.132;5.360;2023-03-21T07:07:46;13.50;;;4.97;;
38621;SDS011;24380;51.132;5.360;2023-03-21T07:10:14;10.40;;;5.20;;
38621;SDS011;24380;51.132;5.360;2023-03-21T07:12:41;12.23;;;5.37;;
38621;SDS011;24380;51.132;5.360;2023-03-21T07:15:09;15.03;;;5.42;;
38621;SDS011;24380;51.132;5.360;2023-03-21T07:17:37;14.33;;;5.55;;
38621;SDS011;24380;51.132;5.360;2023-03-21T07:20:04;10.70;;;5.70;;
38621;SDS011;24380;51.132;5.360;2023-03-21T07:22:34;9.63;;;5.33;;
38621;SDS011;24380;51.132;5.360;2023-03-21T07:25:02;12.95;;;5.45;;
38621;SDS011;24380;51.132;5.360;2023-03-21T07:27:30;12.53;;;4.95;;
38621;SDS011;24380;51.132;5.360;2023-03-21T07:29:58;12.80;;;5.55;;
38621;SDS011;24380;51.132;5.360;2023-03-21T07:32:25;15.10;;;5.90;;
38621;SDS011;24380;51.132;5.360;2023-03-21T07:34:54;15.05;;;5.83;;
38621;SDS011;24380;51.132;5.360;2023-03-21T07:37:22;12.73;;;5.60;;
38621;SDS011;24380;51.132;5.360;2023-03-21T07:39:50;13.58;;;5.87;;
38621;SDS011;24380;51.132;5.360;2023-03-21T07:42:18;14.60;;;5.17;;
38621;SDS011;24380;51.132;5.360;2023-03-21T07:44:45;15.45;;;5.72;;
38621;SDS011;24380;51.132;5.360;2023-03-21T07:47:13;13.95;;;5.70;;
38621;SDS011;24380;51.132;5.360;2023-03-21T07:49:40;10.63;;;5.15;;
38621;SDS011;24380;51.132;5.360;2023-03-21T07:52:08;12.05;;;5.20;;
38621;SDS011;24380;51.132;5.360;2023-03-21T07:54:35;13.55;;;5.60;;
38621;SDS011;24380;51.132;5.360;2023-03-21T07:57:03;13.08;;;6.05;;
38621;SDS011;24380;51.132;5.360;2023-03-21T07:59:32;17.60;;;5.97;;
38621;SDS011;24380;51.132;5.360;2023-03-21T08:01:59;18.67;;;6.45;;
38621;SDS011;24380;51.132;5.360;2023-03-21T08:04:27;11.20;;;5.80;;
38621;SDS011;24380;51.132;5.360;2023-03-21T08:06:54;13.83;;;5.50;;
38621;SDS011;24380;51.132;5.360;2023-03-21T08:09:22;11.22;;;5.87;;
38621;SDS011;24380;51.132;5.360;2023-03-21T08:11:50;15.53;;;6.42;;
38621;SDS011;24380;51.132;5.360;2023-03-21T08:14:17;13.43;;;5.65;;
38621;SDS011;24380;51.132;5.360;2023-03-21T08:16:45;13.50;;;5.62;;
38621;SDS011;24380;51.132;5.360;2023-03-21T08:19:12;14.18;;;5.40;;
38621;SDS011;24380;51.132;5.360;2023-03-21T08:21:40;12.60;;;6.15;;
38621;SDS011;24380;51.132;5.360;2023-03-21T08:24:08;9.70;;;5.62;;
38621;SDS011;24380;51.132;5.360;2023-03-21T08:26:35;15.70;;;7.05;;
38621;SDS011;24380;51.132;5.360;2023-03-21T08:29:03;14.70;;;5.92;;
38621;SDS011;24380;51.132;5.360;2023-03-21T08:31:31;10.60;;;5.97;;
38621;SDS011;24380;51.132;5.360;2023-03-21T08:33:59;10.28;;;6.03;;
38621;SDS011;24380;51.132;5.360;2023-03-21T08:36:26;12.55;;;5.12;;
38621;SDS011;24380;51.132;5.360;2023-03-21T08:38:55;11.15;;;5.35;;
38621;SDS011;24380;51.132;5.360;2023-03-21T08:41:24;11.25;;;5.25;;
38621;SDS011;24380;51.132;5.360;2023-03-21T08:43:51;10.50;;;5.25;;
38621;SDS011;24380;51.132;5.360;2023-03-21T08:46:19;9.10;;;4.87;;
38621;SDS011;24380;51.132;5.360;2023-03-21T08:48:46;11.95;;;5.10;;
38621;SDS011;24380;51.132;5.360;2023-03-21T08:51:14;10.53;;;4.25;;
38621;SDS011;24380;51.132;5.360;2023-03-21T08:53:42;9.40;;;4.78;;
38621;SDS011;24380;51.132;5.360;2023-03-21T08:56:09;12.73;;;5.05;;
38621;SDS011;24380;51.132;5.360;2023-03-21T08:58:37;10.78;;;4.75;;
38621;SDS011;24380;51.132;5.360;2023-03-21T09:01:05;10.55;;;4.62;;
38621;SDS011;24380;51.132;5.360;2023-03-21T09:03:34;8.00;;;4.42;;
38621;SDS011;24380;51.132;5.360;2023-03-21T09:06:02;10.85;;;4.83;;
38621;SDS011;24380;51.132;5.360;2023-03-21T09:08:30;9.23;;;4.78;;
38621;SDS011;24380;51.132;5.360;2023-03-21T09:10:58;10.45;;;4.70;;
38621;SDS011;24380;51.132;5.360;2023-03-21T09:13:25;10.60;;;4.95;;
38621;SDS011;24380;51.132;5.360;2023-03-21T09:15:53;10.32;;;5.08;;
38621;SDS011;24380;51.132;5.360;2023-03-21T09:18:23;13.83;;;4.92;;
38621;SDS011;24380;51.132;5.360;2023-03-21T09:20:52;9.80;;;4.40;;
38621;SDS011;24380;51.132;5.360;2023-03-21T09:23:20;8.50;;;4.62;;
38621;SDS011;24380;51.132;5.360;2023-03-21T09:25:47;11.70;;;4.40;;
38621;SDS011;24380;51.132;5.360;2023-03-21T09:28:15;11.33;;;4.37;;
38621;SDS011;24380;51.132;5.360;2023-03-21T09:30:43;12.05;;;4.70;;
38621;SDS011;24380;51.132;5.360;2023-03-21T09:33:11;9.95;;;4.12;;
38621;SDS011;24380;51.132;5.360;2023-03-21T09:35:40;6.90;;;4.35;;
38621;SDS011;24380;51.132;5.360;2023-03-21T09:38:08;10.18;;;4.90;;
38621;SDS011;24380;51.132;5.360;2023-03-21T09:43:12;9.83;;;4.15;;
38621;SDS011;24380;51.132;5.360;2023-03-21T09:45:57;11.25;;;4.10;;
38621;SDS011;24380;51.132;5.360;2023-03-21T09:48:34;7.55;;;4.03;;
38621;SDS011;24380;51.132;5.360;2023-03-21T09:51:16;11.65;;;4.37;;
38621;SDS011;24380;51.132;5.360;2023-03-21T09:53:46;10.15;;;3.87;;
38621;SDS011;24380;51.132;5.360;2023-03-21T09:58:47;7.60;;;4.00;;
38621;SDS011;24380;51.132;5.360;2023-03-21T10:01:22;6.30;;;3.62;;
38621;SDS011;24380;51.132;5.360;2023-03-21T10:03:55;8.28;;;4.05;;
38621;SDS011;24380;51.132;5.360;2023-03-21T10:06:25;7.00;;;3.90;;
38621;SDS011;24380;51.132;5.360;2023-03-21T10:08:56;9.98;;;4.33;;
38621;SDS011;24380;51.132;5.360;2023-03-21T10:11:46;7.28;;;3.98;;
38621;SDS011;24380;51.132;5.360;2023-03-21T10:14:24;9.50;;;4.10;;
38621;SDS011;24380;51.132;5.360;2023-03-21T10:16:56;8.50;;;3.83;;
38621;SDS011;24380;51.132;5.360;2023-03-21T10:19:28;7.55;;;4.10;;
38621;SDS011;24380;51.132;5.360;2023-03-21T10:21:56;11.15;;;4.03;;
38621;SDS011;24380;51.132;5.360;2023-03-21T10:24:24;9.68;;;4.20;;
38621;SDS011;24380;51.132;5.360;2023-03-21T10:26:54;8.70;;;4.25;;
38621;SDS011;24380;51.132;5.360;2023-03-21T10:29:23;7.35;;;3.80;;
38621;SDS011;24380;51.132;5.360;2023-03-21T10:34:24;5.30;;;3.08;;
38621;SDS011;24380;51.132;5.360;2023-03-21T10:36:51;13.90;;;5.28;;
38621;SDS011;24380;51.132;5.360;2023-03-21T10:39:24;8.55;;;3.50;;
38621;SDS011;24380;51.132;5.360;2023-03-21T10:42:05;6.83;;;3.50;;
38621;SDS011;24380;51.132;5.360;2023-03-21T10:44:34;6.60;;;3.10;;
38621;SDS011;24380;51.132;5.360;2023-03-21T10:47:07;9.20;;;3.42;;
38621;SDS011;24380;51.132;5.360;2023-03-21T10:49:33;6.37;;;3.33;;
38621;SDS011;24380;51.132;5.360;2023-03-21T10:52:04;8.45;;;3.25;;
38621;SDS011;24380;51.132;5.360;2023-03-21T11:02:02;8.08;;;3.42;;
38621;SDS011;24380;51.132;5.360;2023-03-21T11:04:31;7.20;;;3.35;;
38621;SDS011;24380;51.132;5.360;2023-03-21T11:07:03;5.20;;;3.50;;
38621;SDS011;24380;51.132;5.360;2023-03-21T11:12:16;8.80;;;3.90;;
38621;SDS011;24380;51.132;5.360;2023-03-21T11:14:46;7.70;;;3.75;;
38621;SDS011;24380;51.132;5.360;2023-03-21T11:19:51;9.48;;;3.40;;
38621;SDS011;24380;51.132;5.360;2023-03-21T11:24:47;9.10;;;3.70;;
38621;SDS011;24380;51.132;5.360;2023-03-21T11:27:16;7.40;;;3.40;;
38621;SDS011;24380;51.132;5.360;2023-03-21T11:29:45;7.67;;;3.15;;
38621;SDS011;24380;51.132;5.360;2023-03-21T11:35:00;11.22;;;3.25;;
38621;SDS011;24380;51.132;5.360;2023-03-21T11:38:22;5.75;;;2.92;;
38621;SDS011;24380;51.132;5.360;2023-03-21T11:40:06;6.33;;;2.98;;
38621;SDS011;24380;51.132;5.360;2023-03-21T11:42:44;6.65;;;3.02;;
38621;SDS011;24380;51.132;5.360;2023-03-21T11:45:15;8.63;;;2.90;;
38621;SDS011;24380;51.132;5.360;2023-03-21T11:47:45;8.33;;;2.90;;
38621;SDS011;24380;51.132;5.360;2023-03-21T11:58:45;7.45;;;3.10;;
38621;SDS011;24380;51.132;5.360;2023-03-21T12:04:19;7.78;;;2.98;;
38621;SDS011;24380;51.132;5.360;2023-03-21T12:10:08;9.60;;;2.90;;
38621;SDS011;24380;51.132;5.360;2023-03-21T12:12:58;8.45;;;2.85;;
38621;SDS011;24380;51.132;5.360;2023-03-21T12:28:57;6.37;;;3.70;;
38621;SDS011;24380;51.132;5.360;2023-03-21T12:40:21;7.55;;;3.47;;
38621;SDS011;24380;51.132;5.360;2023-03-21T12:45:49;6.37;;;3.20;;
38621;SDS011;24380;51.132;5.360;2023-03-21T12:51:17;7.45;;;3.75;;
38621;SDS011;24380;51.132;5.360;2023-03-21T12:54:03;7.85;;;3.72;;
38621;SDS011;24380;51.132;5.360;2023-03-21T12:56:39;8.68;;;3.80;;
38621;SDS011;24380;51.132;5.360;2023-03-21T13:07:19;7.80;;;3.58;;
38621;SDS011;24380;51.132;5.360;2023-03-21T13:09:49;7.78;;;3.70;;
38621;SDS011;24380;51.132;5.360;2023-03-21T13:12:25;10.88;;;3.60;;
38621;SDS011;24380;51.132;5.360;2023-03-21T13:15:04;6.10;;;3.20;;
38621;SDS011;24380;51.132;5.360;2023-03-21T13:22:59;6.00;;;3.15;;
38621;SDS011;24380;51.132;5.360;2023-03-21T13:25:29;5.80;;;3.08;;
38621;SDS011;24380;51.132;5.360;2023-03-21T13:28:01;13.45;;;7.97;;
38621;SDS011;24380;51.132;5.360;2023-03-21T13:30:30;7.12;;;4.05;;
38621;SDS011;24380;51.132;5.360;2023-03-21T13:33:12;6.72;;;3.22;;
38621;SDS011;24380;51.132;5.360;2023-03-21T13:35:43;7.83;;;3.10;;
38621;SDS011;24380;51.132;5.360;2023-03-21T13:38:17;7.17;;;3.12;;
38621;SDS011;24380;51.132;5.360;2023-03-21T13:40:58;6.78;;;3.00;;
38621;SDS011;24380;51.132;5.360;2023-03-21T13:48:58;3.77;;;2.58;;
38621;SDS011;24380;51.132;5.360;2023-03-21T13:59:34;6.12;;;3.30;;
38621;SDS011;24380;51.132;5.360;2023-03-21T14:02:26;6.05;;;3.77;;
38621;SDS011;24380;51.132;5.360;2023-03-21T14:05:00;6.03;;;4.05;;
38621;SDS011;24380;51.132;5.360;2023-03-21T14:07:30;6.42;;;4.00;;
38621;SDS011;24380;51.132;5.360;2023-03-21T14:10:05;8.00;;;3.98;;
38621;SDS011;24380;51.132;5.360;2023-03-21T14:15:20;4.67;;;3.05;;
38621;SDS011;24380;51.132;5.360;2023-03-21T14:17:59;6.83;;;3.12;;
38621;SDS011;24380;51.132;5.360;2023-03-21T14:20:33;4.80;;;3.30;;
38621;SDS011;24380;51.132;5.360;2023-03-21T14:23:12;7.25;;;3.30;;
38621;SDS011;24380;51.132;5.360;2023-03-21T14:25:40;7.22;;;3.50;;
38621;SDS011;24380;51.132;5.360;2023-03-21T14:28:23;5.42;;;3.00;;
38621;SDS011;24380;51.132;5.360;2023-03-21T14:30:57;6.12;;;4.15;;
38621;SDS011;24380;51.132;5.360;2023-03-21T14:33:41;4.65;;;3.27;;
38621;SDS011;24380;51.132;5.360;2023-03-21T14:36:08;7.53;;;3.40;;
38621;SDS011;24380;51.132;5.360;2023-03-21T14:38:40;5.40;;;3.10;;
38621;SDS011;24380;51.132;5.360;2023-03-21T14:41:20;3.67;;;2.75;;
38621;SDS011;24380;51.132;5.360;2023-03-21T14:43:59;5.22;;;2.95;;
38621;SDS011;24380;51.132;5.360;2023-03-21T14:47:07;6.70;;;4.65;;
38621;SDS011;24380;51.132;5.360;2023-03-21T14:49:33;6.47;;;2.75;;
38621;SDS011;24380;51.132;5.360;2023-03-21T14:52:03;5.00;;;3.17;;
38621;SDS011;24380;51.132;5.360;2023-03-21T14:57:04;4.00;;;2.98;;
38621;SDS011;24380;51.132;5.360;2023-03-21T14:59:35;6.03;;;3.77;;
38621;SDS011;24380;51.132;5.360;2023-03-21T15:02:04;6.70;;;2.67;;
38621;SDS011;24380;51.132;5.360;2023-03-21T15:04:53;9.63;;;3.20;;
38621;SDS011;24380;51.132;5.360;2023-03-21T15:09:55;7.05;;;2.85;;
38621;SDS011;24380;51.132;5.360;2023-03-21T15:12:26;6.78;;;2.72;;
38621;SDS011;24380;51.132;5.360;2023-03-21T15:14:54;7.35;;;3.20;;
38621;SDS011;24380;51.132;5.360;2023-03-21T15:17:22;5.53;;;3.25;;
38621;SDS011;24380;51.132;5.360;2023-03-21T15:19:51;7.67;;;3.00;;
38621;SDS011;24380;51.132;5.360;2023-03-21T15:22:22;5.55;;;2.77;;
38621;SDS011;24380;51.132;5.360;2023-03-21T15:25:03;7.65;;;2.80;;
38621;SDS011;24380;51.132;5.360;2023-03-21T15:27:39;5.50;;;2.60;;
38621;SDS011;24380;51.132;5.360;2023-03-21T15:30:24;4.83;;;3.00;;
38621;SDS011;24380;51.132;5.360;2023-03-21T15:32:54;6.92;;;3.22;;
38621;SDS011;24380;51.132;5.360;2023-03-21T15:35:32;8.40;;;3.35;;
38621;SDS011;24380;51.132;5.360;2023-03-21T15:37:57;6.45;;;4.03;;
38621;SDS011;24380;51.132;5.360;2023-03-21T15:40:26;8.13;;;3.72;;
38621;SDS011;24380;51.132;5.360;2023-03-21T15:43:05;6.08;;;3.80;;
38621;SDS011;24380;51.132;5.360;2023-03-21T15:45:48;5.83;;;3.05;;
38621;SDS011;24380;51.132;5.360;2023-03-21T15:48:35;8.18;;;3.42;;
38621;SDS011;24380;51.132;5.360;2023-03-21T15:51:03;6.60;;;3.17;;
38621;SDS011;24380;51.132;5.360;2023-03-21T15:53:33;7.05;;;3.20;;
38621;SDS011;24380;51.132;5.360;2023-03-21T15:56:03;6.60;;;3.98;;
38621;SDS011;24380;51.132;5.360;2023-03-21T15:58:35;4.83;;;2.72;;
38621;SDS011;24380;51.132;5.360;2023-03-21T16:01:16;5.53;;;3.08;;
38621;SDS011;24380;51.132;5.360;2023-03-21T16:03:44;4.62;;;3.00;;
38621;SDS011;24380;51.132;5.360;2023-03-21T16:08:50;6.78;;;2.70;;
38621;SDS011;24380;51.132;5.360;2023-03-21T16:13:54;5.53;;;2.83;;
38621;SDS011;24380;51.132;5.360;2023-03-21T16:16:23;6.72;;;2.62;;
38621;SDS011;24380;51.132;5.360;2023-03-21T16:18:53;5.42;;;2.83;;
38621;SDS011;24380;51.132;5.360;2023-03-21T16:21:23;5.00;;;2.90;;
38621;SDS011;24380;51.132;5.360;2023-03-21T16:23:52;3.98;;;2.65;;
38621;SDS011;24380;51.132;5.360;2023-03-21T16:26:27;6.60;;;3.30;;
38621;SDS011;24380;51.132;5.360;2023-03-21T16:28:57;38.55;;;19.80;;
38621;SDS011;24380;51.132;5.360;2023-03-21T16:31:26;17.85;;;9.23;;
38621;SDS011;24380;51.132;5.360;2023-03-21T16:33:55;12.33;;;8.90;;
38621;SDS011;24380;51.132;5.360;2023-03-21T16:36:23;6.95;;;3.50;;
38621;SDS011;24380;51.132;5.360;2023-03-21T16:38:56;6.42;;;4.47;;
38621;SDS011;24380;51.132;5.360;2023-03-21T16:41:25;4.95;;;4.20;;
38621;SDS011;24380;51.132;5.360;2023-03-21T16:43:53;6.35;;;3.98;;
38621;SDS011;24380;51.132;5.360;2023-03-21T16:46:24;5.72;;;5.05;;
38621;SDS011;24380;51.132;5.360;2023-03-21T16:48:53;8.23;;;5.60;;
38621;SDS011;24380;51.132;5.360;2023-03-21T16:51:24;7.95;;;5.60;;
38621;SDS011;24380;51.132;5.360;2023-03-21T16:53:55;8.73;;;6.28;;
38621;SDS011;24380;51.132;5.360;2023-03-21T16:56:33;7.58;;;5.35;;
38621;SDS011;24380;51.132;5.360;2023-03-21T16:58:56;8.05;;;5.65;;
38621;SDS011;24380;51.132;5.360;2023-03-21T17:01:24;7.08;;;5.92;;
38621;SDS011;24380;51.132;5.360;2023-03-21T17:03:52;9.93;;;6.08;;
38621;SDS011;24380;51.132;5.360;2023-03-21T17:06:21;7.62;;;6.15;;
38621;SDS011;24380;51.132;5.360;2023-03-21T17:08:51;7.17;;;5.58;;
38621;SDS011;24380;51.132;5.360;2023-03-21T17:11:21;10.65;;;5.45;;
38621;SDS011;24380;51.132;5.360;2023-03-21T17:13:51;7.70;;;5.47;;
38621;SDS011;24380;51.132;5.360;2023-03-21T17:16:21;7.12;;;5.35;;
38621;SDS011;24380;51.132;5.360;2023-03-21T17:18:50;8.20;;;6.00;;
38621;SDS011;24380;51.132;5.360;2023-03-21T17:21:19;6.92;;;5.40;;
38621;SDS011;24380;51.132;5.360;2023-03-21T17:23:48;7.90;;;5.95;;
38621;SDS011;24380;51.132;5.360;2023-03-21T17:26:21;9.68;;;7.15;;
38621;SDS011;24380;51.132;5.360;2023-03-21T17:28:50;8.18;;;5.62;;
38621;SDS011;24380;51.132;5.360;2023-03-21T17:31:19;8.00;;;6.45;;
38621;SDS011;24380;51.132;5.360;2023-03-21T17:33:48;10.72;;;6.40;;